Mehmet Bey — 9HUD6 — position and weather

sailwx.info

Track history (hours):
 
Tides and Currents Weather Stations Pressure Air Temp Water Temp Dewpoint Dewpoint Depression Visibility Wind Speed Wind Dir Waves Ship Positions

Mehmet Bey

Last reported at 2017-Apr-08 04:51 UTC. Time now 2017-Apr-27 01:21 UTC.
Position N 41°00' E 028°60'.
Warning: this ship's position is 18 days out of date.

Length 131 m; draft 5.1 m.

Type: Cargo ship. MMSI: 248864000.

Date/timePositionNaut miles runAvg speedWind from/ knotsBaromVisibWave heightAir tempDewpointWater temp
2017-Apr-08 04:51N 41°00' E 028°60'3 6.8
2017-Apr-08 04:26N 40°57' E 028°60'3 5.9
2017-Apr-08 03:58N 40°55' E 028°57'3 6.0
2017-Apr-08 03:30N 40°57' E 028°55'1 1.1
2017-Apr-08 02:24N 40°59' E 028°56'  
2017-Apr-05 12:27N 40°58' E 028°56'6 5.8
2017-Apr-05 11:23N 40°52' E 028°53'  
2017-Mar-31 03:08N 33°03' E 033°19'19 9.9
2017-Mar-31 01:13N 32°46' E 033°29'28 9.9
2017-Mar-30 22:25N 32°21' E 033°43'1010.0
2017-Mar-30 21:28N 32°12' E 033°48'48 6.9
2017-Mar-30 14:29N 31°49' E 034°37'0 0.0
2017-Mar-30 13:29N 31°49' E 034°37'0 0.0
2017-Mar-30 12:23N 31°49' E 034°37'0 0.0
2017-Mar-30 09:05N 31°49' E 034°37'0 0.1
2017-Mar-30 08:32N 31°49' E 034°37'0 0.0
2017-Mar-30 07:26N 31°49' E 034°37'0 0.0
2017-Mar-30 06:20N 31°49' E 034°37'0 0.0
2017-Mar-29 21:29N 31°49' E 034°37'0 0.0
2017-Mar-29 20:32N 31°49' E 034°37'0 0.0
2017-Mar-29 18:32N 31°49' E 034°37'0 0.0
2017-Mar-29 17:32N 31°49' E 034°37'0 0.0
2017-Mar-29 16:32N 31°49' E 034°37'0 0.0
2017-Mar-29 15:32N 31°49' E 034°37'0 0.0
2017-Mar-29 13:14N 31°49' E 034°37'0 0.0
2017-Mar-29 12:23N 31°49' E 034°37'0 0.0
2017-Mar-29 11:32N 31°49' E 034°37'0 0.0
2017-Mar-29 10:32N 31°49' E 034°37'0 0.0
2017-Mar-29 09:23N 31°49' E 034°37'  
Track history (hours):
 
Tides and Currents Weather Stations Pressure Air Temp Water Temp Dewpoint Dewpoint Depression Visibility Wind Speed Wind Dir Waves Ship Positions

Mehmet Bey

Last reported at 2017-Apr-08 04:51 UTC. Time now 2017-Apr-27 01:21 UTC.
Position N 41°00' E 028°60'.
Warning: this ship's position is 18 days out of date.

Length 131 m; draft 5.1 m.

Type: Cargo ship. MMSI: 248864000.

Date/timePositionNaut miles runAvg speedWind from/ knotsBaromVisibWave heightAir tempDewpointWater temp
2017-Apr-08 04:51N 41°00' E 028°60'3 6.8
2017-Apr-08 04:26N 40°57' E 028°60'3 5.9
2017-Apr-08 03:58N 40°55' E 028°57'3 6.0
2017-Apr-08 03:30N 40°57' E 028°55'1 1.1
2017-Apr-08 02:24N 40°59' E 028°56'  
2017-Apr-05 12:27N 40°58' E 028°56'6 5.8
2017-Apr-05 11:23N 40°52' E 028°53'  
2017-Mar-31 03:08N 33°03' E 033°19'19 9.9
2017-Mar-31 01:13N 32°46' E 033°29'28 9.9
2017-Mar-30 22:25N 32°21' E 033°43'1010.0
2017-Mar-30 21:28N 32°12' E 033°48'48 6.9
2017-Mar-30 14:29N 31°49' E 034°37'0 0.0
2017-Mar-30 13:29N 31°49' E 034°37'0 0.0
2017-Mar-30 12:23N 31°49' E 034°37'0 0.0
2017-Mar-30 09:05N 31°49' E 034°37'0 0.1
2017-Mar-30 08:32N 31°49' E 034°37'0 0.0
2017-Mar-30 07:26N 31°49' E 034°37'0 0.0
2017-Mar-30 06:20N 31°49' E 034°37'0 0.0
2017-Mar-29 21:29N 31°49' E 034°37'0 0.0
2017-Mar-29 20:32N 31°49' E 034°37'0 0.0
2017-Mar-29 18:32N 31°49' E 034°37'0 0.0
2017-Mar-29 17:32N 31°49' E 034°37'0 0.0
2017-Mar-29 16:32N 31°49' E 034°37'0 0.0
2017-Mar-29 15:32N 31°49' E 034°37'0 0.0
2017-Mar-29 13:14N 31°49' E 034°37'0 0.0
2017-Mar-29 12:23N 31°49' E 034°37'0 0.0
2017-Mar-29 11:32N 31°49' E 034°37'0 0.0
2017-Mar-29 10:32N 31°49' E 034°37'0 0.0
2017-Mar-29 09:23N 31°49' E 034°37'  

Dump ship's entire track history